Aérodrome :
LOGIN :

S'inscrire | Disclaimer

   EN    FR    IT 

 










Légende :    VFR   VFR Marginal   IFR   IFR Intensif   IFR Très Intensif
Visi : 
Plafond : 
>= 8 km
>= 3000ft
5 à 8 km
1000 à 3000 ft
1500m à 5 km
500 à 1000 ft
800 à 1500m
200 à 500 ft
< 800m
< 200 ft
Symboles :   Orages  Brouillard  Fortes neiges  Fortes précipitations  Vent > 20 kt
SIGMETs :   Divers  Orages  Givrage  Turbulence  Onde Orograph.  Cendres Volcan.






- Altitude de l'aérodrome : 256 ft
- Code IATA : GOJ


UWGG - Nizhny Novgorod International

DERNIER METAR :
  • 302000Z 35004MPS 9999 -RA BKN020 02/00 Q1007 R36R/290050 NOSIG

METARs EXPIRÉS :
  • 301930Z 36003MPS 9999 -RA BKN020 03/00 Q1006 R36R/290050 NOSIG
  • 301900Z 35006MPS 9999 -RA BKN020 03/M00 Q1006 R36R/290050 NOSIG
  • 301830Z 34005MPS 9999 -RA BKN020 04/M00 Q1006 R36R/002950 NOSIG
  • 301800Z 31003MPS 9999 BKN020 05/M00 Q1006 R36R/090060 NOSIG
  • 301730Z 34003MPS 9999 SCT026 05/M00 Q1006 R36R/090060 NOSIG

TAF TAF UWGG
Valide du 30 à 18h jusqu'au 31 à 18h UTC


301656Z 3018/3118 34003MPS 4000 -SN BKN012 TX03/3018Z TNM02/3103Z
TEMPO 3018/3106 01006G14MPS 1500 SHSN BLSN BKN010CB



MET'MAP, la Météo Aéronautique d'un coup d'oeil ! - Copyright ORBIFLY Décembre 2007 - Disclaimer

ORBIFLY MET'MAP TEAM :

Programmation & Développement : Alexandra Zaïnal
Sur une idée originale de : Baudouin d'Aumeries
Assistance à la programmation : Marc-Olivier Méhu
Soutien technique & logistique : Manuel Goepfert

Contact : metmap@orbifly.com




SOURCES & CREDITS :

   NOAA